createdAt,value
2022-11-12T00:01:45.837Z,62.34
2022-11-12T00:04:32.456Z,61.90
2022-11-12T00:07:18.894Z,61.10
2022-11-12T00:10:05.613Z,61.38
2022-11-12T00:12:52.444Z,60.97
2022-11-12T00:15:38.754Z,60.83
2022-11-12T00:18:25.605Z,60.87
2022-11-12T00:21:12.263Z,59.66
2022-11-12T00:23:58.694Z,59.45
2022-11-12T00:26:45.711Z,59.27
2022-11-12T00:29:32.227Z,59.24
2022-11-12T00:32:20.157Z,58.69
2022-11-12T00:35:12.434Z,58.25
2022-11-12T00:38:01.014Z,58.55
2022-11-12T00:40:47.543Z,59.27
2022-11-12T00:43:34.044Z,59.77
2022-11-12T00:46:21.065Z,60.30
2022-11-12T00:49:07.763Z,60.12
2022-11-12T00:51:54.688Z,60.14
2022-11-12T00:54:40.862Z,58.86
2022-11-12T00:57:27.157Z,59.82
2022-11-12T01:00:15.957Z,60.59
2022-11-12T01:03:02.629Z,60.62
2022-11-12T01:05:49.651Z,60.04
2022-11-12T01:08:36.771Z,60.20
2022-11-12T01:11:25.109Z,59.37
2022-11-12T01:14:11.879Z,59.55
2022-11-12T01:16:58.605Z,59.81
2022-11-12T01:19:45.132Z,60.52
2022-11-12T01:22:31.947Z,61.27
2022-11-12T01:25:18.754Z,61.49
2022-11-12T01:28:05.088Z,60.18
2022-11-12T01:30:51.862Z,60.06
2022-11-12T01:33:39.182Z,59.56
2022-11-12T01:36:27.011Z,59.58
2022-11-12T01:39:13.516Z,59.96
2022-11-12T01:42:00.429Z,60.44
2022-11-12T01:44:47.457Z,59.82
2022-11-12T01:47:34.867Z,59.70
2022-11-12T01:50:24.544Z,59.61
2022-11-12T01:53:12.095Z,59.60
2022-11-12T01:55:59.496Z,59.58
2022-11-12T01:58:46.850Z,59.39
2022-11-12T02:01:35.207Z,58.87
2022-11-12T02:04:24.000Z,59.30
2022-11-12T02:07:11.282Z,59.30
2022-11-12T02:09:59.586Z,57.74
2022-11-12T02:13:06.134Z,59.01
2022-11-12T02:15:52.862Z,59.53
2022-11-12T02:18:39.432Z,58.97
2022-11-12T02:21:26.517Z,60.07
2022-11-12T02:24:13.238Z,60.18
2022-11-12T02:27:00.616Z,60.09
2022-11-12T02:29:46.913Z,60.36
2022-11-12T02:32:34.030Z,60.71
2022-11-12T02:35:21.148Z,60.13
2022-11-12T02:38:08.118Z,59.85
2022-11-12T02:40:54.512Z,59.88
2022-11-12T02:43:41.434Z,60.25
2022-11-12T02:46:28.180Z,60.32
2022-11-12T02:49:14.988Z,59.72
2022-11-12T02:52:01.701Z,59.86
2022-11-12T02:54:48.438Z,60.09
2022-11-12T02:57:35.157Z,60.18
2022-11-12T03:00:21.614Z,59.90
2022-11-12T03:03:08.205Z,59.68
2022-11-12T03:05:57.076Z,59.43
2022-11-12T03:08:43.942Z,60.32
2022-11-12T03:11:30.406Z,61.68
2022-11-12T03:14:16.979Z,62.97
2022-11-12T03:17:04.116Z,62.96
2022-11-12T03:19:51.125Z,63.34
2022-11-12T03:22:38.651Z,63.95
2022-11-12T03:25:25.563Z,64.18
2022-11-12T03:28:13.542Z,64.52
2022-11-12T03:31:00.631Z,64.54
2022-11-12T03:33:47.564Z,65.17
2022-11-12T03:36:34.924Z,65.04
2022-11-12T03:39:21.233Z,64.05
2022-11-12T03:42:07.927Z,64.25
2022-11-12T03:44:54.510Z,65.30
2022-11-12T03:47:44.917Z,65.90
2022-11-12T03:50:31.640Z,66.19
2022-11-12T03:53:18.122Z,66.28
2022-11-12T03:56:05.016Z,65.49
2022-11-12T03:58:51.752Z,65.01
2022-11-12T04:01:38.159Z,63.88
2022-11-12T04:04:44.977Z,65.09
2022-11-12T04:07:49.981Z,67.25
2022-11-12T04:10:36.913Z,66.91
2022-11-12T04:13:29.316Z,66.02
2022-11-12T04:16:36.359Z,65.94
2022-11-12T04:19:41.683Z,65.40
2022-11-12T04:22:28.101Z,66.48
2022-11-12T04:25:33.567Z,67.80
2022-11-12T04:28:20.067Z,67.60
2022-11-12T04:31:06.501Z,68.05
2022-11-12T04:33:52.993Z,67.90
2022-11-12T04:36:39.494Z,67.64
2022-11-12T04:39:25.906Z,67.80
2022-11-12T04:42:31.690Z,68.37
2022-11-12T04:45:18.498Z,68.32
2022-11-12T04:48:05.001Z,67.10
2022-11-12T04:50:56.833Z,66.16
2022-11-12T04:53:43.536Z,66.71
2022-11-12T04:56:30.056Z,67.12
2022-11-12T04:59:17.081Z,66.10
2022-11-12T05:02:03.581Z,66.65
2022-11-12T05:04:51.045Z,65.62
2022-11-12T05:07:37.590Z,66.46
2022-11-12T05:10:24.479Z,66.49
2022-11-12T05:13:11.068Z,66.18
2022-11-12T05:15:57.302Z,65.54
2022-11-12T05:18:43.595Z,65.63
2022-11-12T05:21:48.935Z,64.99
2022-11-12T05:24:43.054Z,65.58
2022-11-12T05:27:29.931Z,64.47
2022-11-12T05:30:17.056Z,63.98
2022-11-12T05:33:03.582Z,63.93
2022-11-12T05:35:50.489Z,65.65
2022-11-12T05:38:39.257Z,64.01
2022-11-12T05:41:25.721Z,64.24
2022-11-12T05:44:12.635Z,62.14
2022-11-12T05:46:59.401Z,61.55
2022-11-12T05:49:46.254Z,61.60
2022-11-12T05:52:32.833Z,59.90
2022-11-12T05:55:19.870Z,58.94
2022-11-12T05:58:07.478Z,57.13
2022-11-12T06:00:54.101Z,55.67
2022-11-12T06:03:40.425Z,53.83
2022-11-12T06:06:27.416Z,52.76
2022-11-12T06:09:14.019Z,50.76
2022-11-12T06:12:02.581Z,50.05
2022-11-12T06:14:49.133Z,49.78
2022-11-12T06:17:35.836Z,49.44
2022-11-12T06:20:23.574Z,48.53
2022-11-12T06:23:10.115Z,47.98
2022-11-12T06:25:56.579Z,46.15
2022-11-12T06:28:43.574Z,45.12
2022-11-12T06:31:30.107Z,45.03
2022-11-12T06:34:16.518Z,46.67
2022-11-12T06:37:02.963Z,46.79
2022-11-12T06:39:49.605Z,45.65
2022-11-12T06:42:36.197Z,44.58
2022-11-12T06:45:23.059Z,43.43
2022-11-12T06:48:10.274Z,42.64
2022-11-12T06:50:57.395Z,41.45
2022-11-12T06:53:44.563Z,40.28
2022-11-12T06:56:31.149Z,40.47
2022-11-12T06:59:17.817Z,39.46
2022-11-12T07:02:05.752Z,38.82
2022-11-12T07:04:52.540Z,38.76
2022-11-12T07:07:39.893Z,39.45
2022-11-12T07:10:26.707Z,39.21
2022-11-12T07:13:13.330Z,38.64
2022-11-12T07:16:00.773Z,38.42
2022-11-12T07:18:48.075Z,38.70
2022-11-12T07:21:34.678Z,38.94
2022-11-12T07:24:21.071Z,39.95
2022-11-12T07:27:07.564Z,41.82
2022-11-12T07:29:55.987Z,43.22
2022-11-12T07:32:47.107Z,44.43
2022-11-12T07:35:36.250Z,45.83
2022-11-12T07:38:22.813Z,46.44
2022-11-12T07:41:09.801Z,47.36
2022-11-12T07:43:56.272Z,48.65
2022-11-12T07:46:42.818Z,49.19
2022-11-12T07:49:29.386Z,50.67
2022-11-12T07:52:16.122Z,52.53
2022-11-12T07:55:02.931Z,53.08
2022-11-12T07:57:49.271Z,53.58
2022-11-12T08:00:35.811Z,53.99
2022-11-12T08:03:22.603Z,54.07
2022-11-12T08:06:09.147Z,54.45
2022-11-12T08:08:57.025Z,54.52
2022-11-12T08:11:44.102Z,54.21
2022-11-12T08:14:31.111Z,54.25
2022-11-12T08:17:17.745Z,54.23
2022-11-12T08:20:05.118Z,53.87
2022-11-12T08:22:51.829Z,53.64
2022-11-12T08:25:38.327Z,53.69
2022-11-12T08:28:25.309Z,53.59
2022-11-12T08:31:13.819Z,53.51
2022-11-12T08:34:12.370Z,53.30
2022-11-12T08:36:59.342Z,53.05
2022-11-12T08:39:45.787Z,52.99
2022-11-12T08:42:32.346Z,52.81
2022-11-12T08:45:18.826Z,52.90
2022-11-12T08:48:10.989Z,53.11
2022-11-12T08:50:57.790Z,53.12
2022-11-12T08:53:44.582Z,53.33
2022-11-12T08:56:31.797Z,53.55
2022-11-12T08:59:18.613Z,53.99
2022-11-12T09:02:06.855Z,54.40
2022-11-12T09:04:53.382Z,55.02
2022-11-12T09:07:55.565Z,55.33
2022-11-12T09:10:42.440Z,55.93
2022-11-12T09:13:29.331Z,55.98
2022-11-12T09:16:16.158Z,56.33
2022-11-12T09:19:03.172Z,57.06
2022-11-12T09:21:49.777Z,57.72
2022-11-12T09:24:36.799Z,57.70
2022-11-12T09:27:23.605Z,57.79
2022-11-12T09:30:10.590Z,58.03
2022-11-12T09:32:58.146Z,57.64
2022-11-12T09:35:45.759Z,57.83
2022-11-12T09:38:32.837Z,57.68
2022-11-12T09:41:22.913Z,57.66
2022-11-12T09:44:11.531Z,57.78
2022-11-12T09:47:07.919Z,58.33
2022-11-12T09:49:57.441Z,59.43
2022-11-12T09:52:46.305Z,59.53
2022-11-12T09:55:44.168Z,59.94
2022-11-12T09:58:31.081Z,60.37
2022-11-12T10:01:23.893Z,60.36
2022-11-12T10:04:37.369Z,60.79
2022-11-12T10:07:33.144Z,61.33
2022-11-12T10:10:24.502Z,61.11
2022-11-12T10:13:25.242Z,61.53
2022-11-12T10:16:44.551Z,61.25
2022-11-12T10:19:46.079Z,61.45
2022-11-12T10:22:55.597Z,62.66
2022-11-12T10:25:44.071Z,62.31
2022-11-12T10:28:38.520Z,61.88
2022-11-12T10:31:25.708Z,61.41
2022-11-12T10:34:16.191Z,60.43
2022-11-12T10:37:07.072Z,60.32
2022-11-12T10:39:54.082Z,60.67
2022-11-12T10:42:56.052Z,61.48
2022-11-12T10:45:46.646Z,61.45
2022-11-12T10:48:34.507Z,61.17
2022-11-12T10:51:29.024Z,60.96
2022-11-12T10:54:21.207Z,60.98
2022-11-12T10:57:27.172Z,61.11
2022-11-12T11:00:13.766Z,61.52
2022-11-12T11:03:02.126Z,62.24
2022-11-12T11:05:58.042Z,62.10
2022-11-12T11:08:45.999Z,61.91
2022-11-12T11:11:32.420Z,61.96
2022-11-12T11:14:27.487Z,61.43
2022-11-12T11:17:18.499Z,61.16
2022-11-12T11:20:06.373Z,60.52
2022-11-12T11:23:07.373Z,60.35
2022-11-12T11:25:54.795Z,60.20
2022-11-12T11:28:50.626Z,59.88
2022-11-12T11:31:46.006Z,59.94
2022-11-12T11:34:32.845Z,60.34
2022-11-12T11:37:26.934Z,60.81
2022-11-12T11:40:19.601Z,61.55
2022-11-12T11:43:24.887Z,61.97
2022-11-12T11:46:27.540Z,62.10
2022-11-12T11:49:32.014Z,62.29
2022-11-12T11:52:18.772Z,62.39
2022-11-12T11:55:05.345Z,62.58
2022-11-12T11:57:52.062Z,62.97
2022-11-12T12:00:47.254Z,63.05
2022-11-12T12:03:36.836Z,63.19
2022-11-12T12:06:27.558Z,63.28
2022-11-12T12:09:31.054Z,63.24
2022-11-12T12:12:29.504Z,63.27
2022-11-12T12:15:16.314Z,63.53
2022-11-12T12:18:15.040Z,63.51
2022-11-12T12:21:20.654Z,63.84
2022-11-12T12:24:07.457Z,64.08
2022-11-12T12:26:56.321Z,64.14
2022-11-12T12:29:47.671Z,64.32
2022-11-12T12:32:34.109Z,64.19
2022-11-12T12:35:44.407Z,64.43
2022-11-12T12:38:37.335Z,63.93
2022-11-12T12:41:42.702Z,63.80
2022-11-12T12:44:54.056Z,64.41
2022-11-12T12:47:43.472Z,64.57
2022-11-12T12:50:30.681Z,64.65
2022-11-12T12:53:29.370Z,64.71
2022-11-12T12:56:22.124Z,64.64
2022-11-12T12:59:18.277Z,64.36
2022-11-12T13:02:15.087Z,64.70
2022-11-12T13:05:01.530Z,65.20
2022-11-12T13:07:49.394Z,64.82
2022-11-12T13:10:42.112Z,64.60
2022-11-12T13:13:32.324Z,64.87
2022-11-12T13:16:38.020Z,64.56
2022-11-12T13:19:29.763Z,64.42
2022-11-12T13:22:19.238Z,64.35
2022-11-12T13:25:25.250Z,64.39
2022-11-12T13:28:12.364Z,64.56
2022-11-12T13:30:59.982Z,64.11
2022-11-12T13:33:47.383Z,64.35
2022-11-12T13:36:33.806Z,64.75
2022-11-12T13:39:21.374Z,65.01
2022-11-12T13:42:34.913Z,65.35
2022-11-12T13:45:26.532Z,65.06
2022-11-12T13:48:28.817Z,65.53
2022-11-12T13:51:22.321Z,65.37
2022-11-12T13:54:30.697Z,65.53
2022-11-12T13:57:20.215Z,65.95
2022-11-12T14:00:11.067Z,66.08
2022-11-12T14:03:00.459Z,65.57
2022-11-12T14:05:50.325Z,65.67
2022-11-12T14:08:49.213Z,65.80
2022-11-12T14:11:41.479Z,66.14
2022-11-12T14:14:28.060Z,66.54
2022-11-12T14:17:18.212Z,66.85
2022-11-12T14:20:08.764Z,67.49
2022-11-12T14:22:55.346Z,67.78
2022-11-12T14:25:48.434Z,67.81
2022-11-12T14:28:36.524Z,68.42
2022-11-12T14:31:26.223Z,68.45
2022-11-12T14:34:19.416Z,68.60
2022-11-12T14:37:06.157Z,69.90
2022-11-12T14:39:52.965Z,69.80
2022-11-12T14:42:40.286Z,70.14
2022-11-12T14:45:31.174Z,69.84
2022-11-12T14:48:21.483Z,70.65
2022-11-12T14:51:11.096Z,69.30
2022-11-12T14:54:09.596Z,70.38
2022-11-12T14:56:58.431Z,71.59
2022-11-12T14:59:45.139Z,71.43
2022-11-12T15:02:48.908Z,71.97
2022-11-12T15:06:00.033Z,73.41
2022-11-12T15:08:55.786Z,74.67
2022-11-12T15:11:42.661Z,75.24
2022-11-12T15:14:29.438Z,74.26
2022-11-12T15:17:35.721Z,74.73
2022-11-12T15:20:22.557Z,75.53
2022-11-12T15:23:16.933Z,75.62
2022-11-12T15:26:23.324Z,75.68
2022-11-12T15:29:10.138Z,76.68
2022-11-12T15:31:58.764Z,76.72
2022-11-12T15:34:46.889Z,76.90
2022-11-12T15:37:40.951Z,77.85
2022-11-12T15:40:27.896Z,78.08
2022-11-12T15:43:19.661Z,78.58
2022-11-12T15:46:12.471Z,79.52
2022-11-12T15:48:59.346Z,80.28
2022-11-12T15:51:46.503Z,79.62
2022-11-12T15:54:38.174Z,80.14
2022-11-12T15:57:29.247Z,80.36
2022-11-12T16:00:18.865Z,79.84
2022-11-12T16:03:13.678Z,80.48
2022-11-12T16:06:04.090Z,81.08
2022-11-12T16:08:54.977Z,80.90
2022-11-12T16:11:41.320Z,81.33
2022-11-12T16:14:28.217Z,82.30
2022-11-12T16:17:16.843Z,81.40
2022-11-12T16:20:06.341Z,79.09
2022-11-12T16:22:53.493Z,77.65
2022-11-12T16:25:41.804Z,76.64
2022-11-12T16:28:28.374Z,75.40
2022-11-12T16:31:15.216Z,75.83
2022-11-12T16:34:01.692Z,75.47
2022-11-12T16:36:48.520Z,75.17
2022-11-12T16:39:35.154Z,74.93
2022-11-12T16:42:21.534Z,74.36
2022-11-12T16:45:08.678Z,74.52
2022-11-12T16:47:56.395Z,75.11
2022-11-12T16:50:43.813Z,75.72
2022-11-12T16:53:31.125Z,74.68
2022-11-12T16:56:22.492Z,74.56
2022-11-12T16:59:11.439Z,74.97
2022-11-12T17:01:58.451Z,75.00
2022-11-12T17:04:44.895Z,75.65
2022-11-12T17:07:31.626Z,73.65
2022-11-12T17:10:23.249Z,73.84
2022-11-12T17:13:13.197Z,73.85
2022-11-12T17:15:59.708Z,73.51
2022-11-12T17:18:46.340Z,73.51
2022-11-12T17:21:33.252Z,71.87
2022-11-12T17:24:19.865Z,73.09
2022-11-12T17:27:06.386Z,72.98
2022-11-12T17:29:52.891Z,72.62
2022-11-12T17:32:39.467Z,72.33
2022-11-12T17:35:26.381Z,70.97
2022-11-12T17:38:13.292Z,71.77
2022-11-12T17:40:59.672Z,72.21
2022-11-12T17:43:46.586Z,70.81
2022-11-12T17:46:34.253Z,71.19
2022-11-12T17:49:20.733Z,71.52
2022-11-12T17:52:07.445Z,72.36
2022-11-12T17:54:54.150Z,71.29
2022-11-12T17:57:41.165Z,71.17
2022-11-12T18:00:27.970Z,70.66
2022-11-12T18:03:14.781Z,71.64
2022-11-12T18:06:01.796Z,72.15
2022-11-12T18:08:52.681Z,71.80
2022-11-12T18:11:44.220Z,71.01
2022-11-12T18:14:30.770Z,70.30
2022-11-12T18:17:17.488Z,70.32
2022-11-12T18:20:04.548Z,69.23
2022-11-12T18:22:54.738Z,70.59
2022-11-12T18:25:41.093Z,68.14
2022-11-12T18:28:27.889Z,67.54
2022-11-12T18:31:14.505Z,68.98
2022-11-12T18:34:00.853Z,69.60
2022-11-12T18:36:47.632Z,70.81
2022-11-12T18:39:34.374Z,71.30
2022-11-12T18:42:20.746Z,71.80
2022-11-12T18:45:07.656Z,72.23
2022-11-12T18:47:54.385Z,71.33
2022-11-12T18:50:40.702Z,70.99
2022-11-12T18:53:27.612Z,70.02
2022-11-12T18:56:18.542Z,70.17
2022-11-12T18:59:05.511Z,69.48
2022-11-12T19:01:52.629Z,69.70
2022-11-12T19:04:45.078Z,69.70
2022-11-12T19:07:31.945Z,70.27
2022-11-12T19:10:18.793Z,70.54
2022-11-12T19:13:06.751Z,69.99
2022-11-12T19:15:53.410Z,68.36
2022-11-12T19:18:41.269Z,68.67
2022-11-12T19:21:28.160Z,68.55
2022-11-12T19:24:14.582Z,68.92
2022-11-12T19:27:01.255Z,69.24
2022-11-12T19:29:49.707Z,69.67
2022-11-12T19:32:36.346Z,67.69
2022-11-12T19:35:23.034Z,67.06
2022-11-12T19:38:09.654Z,67.50
2022-11-12T19:41:02.874Z,68.91
2022-11-12T19:43:49.671Z,66.99
2022-11-12T19:46:36.784Z,67.90
2022-11-12T19:49:23.344Z,67.90
2022-11-12T19:52:09.805Z,67.60
2022-11-12T19:54:56.546Z,68.20
2022-11-12T19:57:45.834Z,67.84
2022-11-12T20:00:32.834Z,68.36
2022-11-12T20:03:22.611Z,69.83
2022-11-12T20:06:10.801Z,71.12
2022-11-12T20:09:00.426Z,68.85
2022-11-12T20:11:47.478Z,69.25
2022-11-12T20:14:34.057Z,69.18
2022-11-12T20:17:20.624Z,70.15
2022-11-12T20:20:09.581Z,72.34
2022-11-12T20:22:56.205Z,72.29
2022-11-12T20:25:42.822Z,70.61
2022-11-12T20:28:29.327Z,69.91
2022-11-12T20:31:20.712Z,70.08
2022-11-12T20:34:07.926Z,71.36
2022-11-12T20:36:54.740Z,69.73
2022-11-12T20:39:41.581Z,69.93
2022-11-12T20:42:28.703Z,71.63
2022-11-12T20:45:15.376Z,71.24
2022-11-12T20:48:02.115Z,70.28
2022-11-12T20:51:09.616Z,71.78
2022-11-12T20:53:59.879Z,70.48
2022-11-12T20:56:50.774Z,70.00
2022-11-12T20:59:41.341Z,69.19
2022-11-12T21:02:27.847Z,69.37
2022-11-12T21:05:14.506Z,69.38
2022-11-12T21:08:01.700Z,68.73
2022-11-12T21:10:49.074Z,68.61
2022-11-12T21:13:36.169Z,69.27
2022-11-12T21:16:23.178Z,70.28
2022-11-12T21:19:10.344Z,70.13
2022-11-12T21:21:56.908Z,70.23
2022-11-12T21:24:43.298Z,70.20
2022-11-12T21:27:30.006Z,71.10
2022-11-12T21:30:16.889Z,71.07
2022-11-12T21:33:03.630Z,71.59
2022-11-12T21:35:53.681Z,69.13
2022-11-12T21:38:40.288Z,69.43
2022-11-12T21:41:27.956Z,70.90
2022-11-12T21:44:14.658Z,69.61
2022-11-12T21:47:01.335Z,68.23
2022-11-12T21:49:48.169Z,67.39
2022-11-12T21:52:34.877Z,68.02
2022-11-12T21:55:21.279Z,68.62
2022-11-12T21:58:07.767Z,68.86
2022-11-12T22:00:54.068Z,68.79
2022-11-12T22:03:40.640Z,69.17
2022-11-12T22:06:28.548Z,69.26
2022-11-12T22:09:15.606Z,69.11
2022-11-12T22:12:02.442Z,68.95
2022-11-12T22:14:49.044Z,68.99
2022-11-12T22:17:35.347Z,69.58
2022-11-12T22:20:21.899Z,71.07
2022-11-12T22:23:08.152Z,71.86
2022-11-12T22:25:57.992Z,71.74
2022-11-12T22:28:45.061Z,71.45
2022-11-12T22:31:32.313Z,71.18
2022-11-12T22:34:19.085Z,71.88
2022-11-12T22:37:05.787Z,72.34
2022-11-12T22:39:52.488Z,72.51
2022-11-12T22:42:39.136Z,72.49
2022-11-12T22:45:25.999Z,71.93
2022-11-12T22:48:12.342Z,72.07
2022-11-12T22:51:00.489Z,71.57
2022-11-12T22:53:47.552Z,71.22
2022-11-12T22:56:34.619Z,71.39
2022-11-12T22:59:20.886Z,70.80
2022-11-12T23:02:08.294Z,70.17
2022-11-12T23:04:54.970Z,69.47
2022-11-12T23:07:41.664Z,69.26
2022-11-12T23:10:28.411Z,69.41
2022-11-12T23:13:15.426Z,68.88
2022-11-12T23:16:02.540Z,69.69
2022-11-12T23:18:50.786Z,71.50
2022-11-12T23:21:37.491Z,71.12
2022-11-12T23:24:23.996Z,70.57
2022-11-12T23:27:10.869Z,70.12
2022-11-12T23:29:57.718Z,69.39
2022-11-12T23:32:44.216Z,68.52
2022-11-12T23:35:30.933Z,68.39
2022-11-12T23:38:17.636Z,68.06
2022-11-12T23:41:04.922Z,68.23
2022-11-12T23:43:52.179Z,67.25
2022-11-12T23:46:39.127Z,67.30
2022-11-12T23:49:25.999Z,68.22
2022-11-12T23:52:12.810Z,68.05
2022-11-12T23:54:59.626Z,68.37
2022-11-12T23:57:45.866Z,68.02
